createdAt,value
2018-03-18T00:00:09.169Z,93687
2018-03-18T00:00:41.192Z,93689
2018-03-18T00:01:13.213Z,93687
2018-03-18T00:01:45.234Z,93690
2018-03-18T00:02:18.015Z,93698
2018-03-18T00:02:50.033Z,93689
2018-03-18T00:03:22.056Z,93687
2018-03-18T00:03:54.881Z,93694
2018-03-18T00:04:27.672Z,93690
2018-03-18T00:04:59.696Z,93692
2018-03-18T00:05:32.499Z,93694
2018-03-18T00:06:04.508Z,93687
2018-03-18T00:06:37.302Z,93692
2018-03-18T00:07:09.328Z,93693
2018-03-18T00:07:42.123Z,93705
2018-03-18T00:08:14.146Z,93694
2018-03-18T00:08:46.964Z,93697
2018-03-18T00:09:19.013Z,93688
2018-03-18T00:09:51.032Z,93696
2018-03-18T00:10:23.052Z,93698
2018-03-18T00:10:55.069Z,93693
2018-03-18T00:11:27.105Z,93693
2018-03-18T00:11:59.134Z,93691
2018-03-18T00:12:31.962Z,93692
2018-03-18T00:13:03.981Z,93688
2018-03-18T00:13:36.021Z,93694
2018-03-18T00:14:08.822Z,93684
2018-03-18T00:14:40.841Z,93687
2018-03-18T00:15:12.870Z,93691
2018-03-18T00:15:45.662Z,93695
2018-03-18T00:16:17.698Z,93704
2018-03-18T00:16:49.744Z,93697
2018-03-18T00:17:22.545Z,93701
2018-03-18T00:17:54.578Z,93690
2018-03-18T00:18:26.592Z,93692
2018-03-18T00:18:58.625Z,93688
2018-03-18T00:19:30.695Z,93694
2018-03-18T00:20:02.696Z,93690
2018-03-18T00:20:34.732Z,93691
2018-03-18T00:21:06.761Z,93690
2018-03-18T00:21:38.789Z,93700
2018-03-18T00:22:10.816Z,93696
2018-03-18T00:22:42.837Z,93691
2018-03-18T00:23:14.860Z,93699
2018-03-18T00:23:46.881Z,93697
2018-03-18T00:24:18.923Z,93692
2018-03-18T00:24:50.929Z,93689
2018-03-18T00:25:23.717Z,93692
2018-03-18T00:25:55.745Z,93700
2018-03-18T00:26:28.533Z,93698
2018-03-18T00:27:00.564Z,93701
2018-03-18T00:27:33.356Z,93704
2018-03-18T00:28:05.389Z,93703
2018-03-18T00:28:38.186Z,93692
2018-03-18T00:29:10.202Z,93706
2018-03-18T00:29:43.006Z,93698
2018-03-18T00:30:15.020Z,93702
2018-03-18T00:30:47.838Z,93704
2018-03-18T00:31:19.872Z,93702
2018-03-18T00:31:51.893Z,93695
2018-03-18T00:32:24.742Z,93700
2018-03-18T00:32:56.723Z,93702
2018-03-18T00:33:29.518Z,93702
2018-03-18T00:34:01.537Z,93691
2018-03-18T00:34:34.321Z,93693
2018-03-18T00:35:06.366Z,93697
2018-03-18T00:35:39.158Z,93695
2018-03-18T00:36:11.176Z,93700
2018-03-18T00:36:43.960Z,93693
2018-03-18T00:37:15.998Z,93701
2018-03-18T00:37:48.800Z,93698
2018-03-18T00:38:20.840Z,93687
2018-03-18T00:38:52.896Z,93690
2018-03-18T00:39:24.924Z,93695
2018-03-18T00:39:57.718Z,93701
2018-03-18T00:40:29.752Z,93698
2018-03-18T00:41:02.547Z,93701
2018-03-18T00:41:34.574Z,93694
2018-03-18T00:42:06.612Z,93698
2018-03-18T00:42:39.400Z,93702
2018-03-18T00:43:11.421Z,93694
2018-03-18T00:43:44.227Z,93700
2018-03-18T00:44:16.302Z,93690
2018-03-18T00:44:49.047Z,93695
2018-03-18T00:45:21.064Z,93691
2018-03-18T00:45:53.867Z,93691
2018-03-18T00:46:25.932Z,93701
2018-03-18T00:46:57.958Z,93694
2018-03-18T00:47:30.749Z,93692
2018-03-18T00:48:02.771Z,93695
2018-03-18T00:48:35.569Z,93697
2018-03-18T00:49:07.597Z,93697
2018-03-18T00:49:39.626Z,93694
2018-03-18T00:50:12.418Z,93697
2018-03-18T00:50:44.444Z,93700
2018-03-18T00:51:16.482Z,93703
2018-03-18T00:51:48.540Z,93713
2018-03-18T00:52:20.572Z,93704
2018-03-18T00:52:52.599Z,93707
2018-03-18T00:53:24.623Z,93698
2018-03-18T00:53:56.653Z,93699
2018-03-18T00:54:29.455Z,93704
2018-03-18T00:55:01.484Z,93714
2018-03-18T00:55:34.290Z,93715
2018-03-18T00:56:06.324Z,93709
2018-03-18T00:56:38.423Z,93712
2018-03-18T00:57:10.421Z,93714
2018-03-18T00:57:42.448Z,93726
2018-03-18T00:58:14.470Z,93717
2018-03-18T00:58:46.504Z,93717
2018-03-18T00:59:18.553Z,93720
2018-03-18T00:59:50.586Z,93720
2018-03-18T01:00:22.612Z,93724
2018-03-18T01:00:55.403Z,93723
2018-03-18T01:01:27.429Z,93721
2018-03-18T01:02:00.221Z,93726
2018-03-18T01:02:32.240Z,93724
2018-03-18T01:03:04.275Z,93729
2018-03-18T01:03:36.293Z,93733
2018-03-18T01:04:08.326Z,93727
2018-03-18T01:04:40.353Z,93734
2018-03-18T01:05:13.149Z,93733
2018-03-18T01:05:45.201Z,93731
2018-03-18T01:06:18.021Z,93731
2018-03-18T01:06:49.985Z,93736
2018-03-18T01:07:22.774Z,93728
2018-03-18T01:07:54.800Z,93731
2018-03-18T01:08:26.813Z,93729
2018-03-18T01:08:58.885Z,93732
2018-03-18T01:09:30.952Z,93731
2018-03-18T01:10:03.002Z,93732
2018-03-18T01:10:35.006Z,93734
2018-03-18T01:11:07.021Z,93727
2018-03-18T01:11:39.808Z,93731
2018-03-18T01:12:11.828Z,93734
2018-03-18T01:12:43.845Z,93732
2018-03-18T01:13:15.872Z,93735
2018-03-18T01:13:47.917Z,93734
2018-03-18T01:14:19.954Z,93733
2018-03-18T01:14:52.738Z,93730
2018-03-18T01:15:24.764Z,93737
2018-03-18T01:15:57.548Z,93732
2018-03-18T01:16:29.582Z,93738
2018-03-18T01:17:01.590Z,93739
2018-03-18T01:17:33.605Z,93740
2018-03-18T01:18:05.640Z,93739
2018-03-18T01:18:38.420Z,93733
2018-03-18T01:19:10.475Z,93736
2018-03-18T01:19:42.488Z,93741
2018-03-18T01:20:14.522Z,93740
2018-03-18T01:20:46.563Z,93738
2018-03-18T01:21:18.582Z,93737
2018-03-18T01:21:50.673Z,93741
2018-03-18T01:22:22.685Z,93745
2018-03-18T01:22:54.717Z,93745
2018-03-18T01:23:27.509Z,93743
2018-03-18T01:23:59.529Z,93743
2018-03-18T01:24:32.327Z,93742
2018-03-18T01:25:04.348Z,93740
2018-03-18T01:25:37.145Z,93742
2018-03-18T01:26:09.158Z,93742
2018-03-18T01:26:41.232Z,93741
2018-03-18T01:27:14.013Z,93744
2018-03-18T01:27:46.066Z,93739
2018-03-18T01:28:18.845Z,93736
2018-03-18T01:28:50.872Z,93739
2018-03-18T01:29:23.661Z,93739
2018-03-18T01:29:55.685Z,93743
2018-03-18T01:30:28.480Z,93748
2018-03-18T01:31:00.505Z,93738
2018-03-18T01:31:33.300Z,93745
2018-03-18T01:32:05.329Z,93743
2018-03-18T01:32:38.126Z,93752
2018-03-18T01:33:10.144Z,93746
2018-03-18T01:33:42.946Z,93742
2018-03-18T01:34:14.970Z,93742
2018-03-18T01:34:47.769Z,93742
2018-03-18T01:35:19.803Z,93741
2018-03-18T01:35:51.836Z,93744
2018-03-18T01:36:24.639Z,93738
2018-03-18T01:36:56.660Z,93746
2018-03-18T01:37:29.457Z,93746
2018-03-18T01:38:01.472Z,93738
2018-03-18T01:38:34.260Z,93743
2018-03-18T01:39:06.299Z,93741
2018-03-18T01:39:39.174Z,93745
2018-03-18T01:40:11.950Z,93739
2018-03-18T01:40:44.782Z,93736
2018-03-18T01:41:16.811Z,93741
2018-03-18T01:41:48.839Z,93739
2018-03-18T01:42:20.861Z,93750
2018-03-18T01:42:53.644Z,93743
2018-03-18T01:43:25.670Z,93737
2018-03-18T01:43:57.693Z,93740
2018-03-18T01:44:29.709Z,93737
2018-03-18T01:45:01.726Z,93740
2018-03-18T01:45:34.522Z,93733
2018-03-18T01:46:06.534Z,93740
2018-03-18T01:46:38.558Z,93741
2018-03-18T01:47:10.581Z,93740
2018-03-18T01:47:42.609Z,93743
2018-03-18T01:48:15.398Z,93737
2018-03-18T01:48:47.412Z,93739
2018-03-18T01:49:19.449Z,93737
2018-03-18T01:49:51.493Z,93737
2018-03-18T01:50:23.525Z,93740
2018-03-18T01:50:55.554Z,93739
2018-03-18T01:51:27.584Z,93737
2018-03-18T01:52:00.373Z,93736
2018-03-18T01:52:32.402Z,93739
2018-03-18T01:53:05.188Z,93740
2018-03-18T01:53:37.224Z,93738
2018-03-18T01:54:10.012Z,93737
2018-03-18T01:54:42.040Z,93741
2018-03-18T01:55:14.076Z,93738
2018-03-18T01:55:46.094Z,93733
2018-03-18T01:56:18.112Z,93732
2018-03-18T01:56:50.145Z,93733
2018-03-18T01:57:22.964Z,93728
2018-03-18T01:57:54.970Z,93730
2018-03-18T01:58:27.757Z,93736
2018-03-18T01:58:59.777Z,93739
2018-03-18T01:59:32.578Z,93733
2018-03-18T02:00:04.584Z,93732
2018-03-18T02:00:36.620Z,93741
2018-03-18T02:01:08.645Z,93733
2018-03-18T02:01:40.710Z,93742
2018-03-18T02:02:12.735Z,93736
2018-03-18T02:02:44.784Z,93734
2018-03-18T02:03:16.808Z,93734
2018-03-18T02:03:49.645Z,93731
2018-03-18T02:04:21.664Z,93727
2018-03-18T02:04:53.702Z,93732
2018-03-18T02:05:25.728Z,93729
2018-03-18T02:05:58.543Z,93737
2018-03-18T02:06:30.569Z,93738
2018-03-18T02:07:02.594Z,93726
2018-03-18T02:07:34.659Z,93729
2018-03-18T02:08:07.436Z,93726
2018-03-18T02:08:39.465Z,93727
2018-03-18T02:09:11.485Z,93726
2018-03-18T02:09:43.524Z,93728
2018-03-18T02:10:15.543Z,93724
2018-03-18T02:10:48.326Z,93723
2018-03-18T02:11:20.344Z,93730
2018-03-18T02:11:53.141Z,93732
2018-03-18T02:12:25.180Z,93731
2018-03-18T02:12:57.209Z,93728
2018-03-18T02:13:29.234Z,93727
2018-03-18T02:14:01.263Z,93722
2018-03-18T02:14:33.281Z,93721
2018-03-18T02:15:05.312Z,93724
2018-03-18T02:15:37.339Z,93729
2018-03-18T02:16:09.366Z,93719
2018-03-18T02:16:41.388Z,93723
2018-03-18T02:17:13.415Z,93717
2018-03-18T02:17:45.438Z,93713
2018-03-18T02:18:17.476Z,93718
2018-03-18T02:18:49.493Z,93710
2018-03-18T02:19:22.288Z,93708
2018-03-18T02:19:54.325Z,93692
2018-03-18T02:20:26.351Z,93697
2018-03-18T02:20:59.145Z,93697
2018-03-18T02:21:31.170Z,93694
2018-03-18T02:22:03.188Z,93694
2018-03-18T02:22:35.205Z,93693
2018-03-18T02:23:07.279Z,93694
2018-03-18T02:23:39.297Z,93692
2018-03-18T02:24:11.320Z,93689
2018-03-18T02:24:44.121Z,93690
2018-03-18T02:25:16.154Z,93693
2018-03-18T02:25:48.937Z,93687
2018-03-18T02:26:20.970Z,93695
2018-03-18T02:26:52.976Z,93682
2018-03-18T02:27:25.009Z,93683
2018-03-18T02:27:57.029Z,93679
2018-03-18T02:28:29.824Z,93681
2018-03-18T02:29:01.855Z,93683
2018-03-18T02:29:34.637Z,93687
2018-03-18T02:30:06.661Z,93684
2018-03-18T02:30:39.448Z,93680
2018-03-18T02:31:11.472Z,93690
2018-03-18T02:31:43.515Z,93682
2018-03-18T02:32:15.542Z,93689
2018-03-18T02:32:47.568Z,93689
2018-03-18T02:33:19.583Z,93695
2018-03-18T02:33:51.655Z,93696
2018-03-18T02:34:23.752Z,93695
2018-03-18T02:34:55.785Z,93695
2018-03-18T02:35:27.846Z,93695
2018-03-18T02:35:59.847Z,93703
2018-03-18T02:36:32.643Z,93696
2018-03-18T02:37:04.665Z,93701
2018-03-18T02:37:37.464Z,93700
2018-03-18T02:38:09.497Z,93707
2018-03-18T02:38:42.288Z,93709
2018-03-18T02:39:14.313Z,93709
2018-03-18T02:39:46.342Z,93715
2018-03-18T02:40:18.416Z,93705
2018-03-18T02:40:51.277Z,93710
2018-03-18T02:41:23.259Z,93710
2018-03-18T02:41:55.277Z,93708
2018-03-18T02:42:28.085Z,93714
2018-03-18T02:43:00.113Z,93708
2018-03-18T02:43:32.127Z,93711
2018-03-18T02:44:04.156Z,93716
2018-03-18T02:44:36.209Z,93713
2018-03-18T02:45:08.232Z,93714
2018-03-18T02:45:40.260Z,93714
2018-03-18T02:46:12.289Z,93717
2018-03-18T02:46:44.304Z,93716
2018-03-18T02:47:16.391Z,93717
2018-03-18T02:47:48.414Z,93715
2018-03-18T02:48:20.429Z,93717
2018-03-18T02:48:53.213Z,93720
2018-03-18T02:49:25.235Z,93714
2018-03-18T02:49:57.260Z,93720
2018-03-18T02:50:29.322Z,93718
2018-03-18T02:51:01.346Z,93718
2018-03-18T02:51:33.375Z,93710
2018-03-18T02:52:05.408Z,93717
2018-03-18T02:52:38.190Z,93712
2018-03-18T02:53:10.221Z,93712
2018-03-18T02:53:43.013Z,93715
2018-03-18T02:54:15.026Z,93716
2018-03-18T02:54:47.060Z,93717
2018-03-18T02:55:19.225Z,93715
2018-03-18T02:55:51.124Z,93716
2018-03-18T02:56:23.150Z,93721
2018-03-18T02:56:55.933Z,93720
2018-03-18T02:57:27.985Z,93725
2018-03-18T02:58:00.769Z,93723
2018-03-18T02:58:32.912Z,93720
2018-03-18T02:59:05.673Z,93721
2018-03-18T02:59:37.696Z,93723
2018-03-18T03:00:09.718Z,93723
2018-03-18T03:00:41.754Z,93726
2018-03-18T03:01:13.773Z,93722
2018-03-18T03:01:45.784Z,93725
2018-03-18T03:02:17.864Z,93720
2018-03-18T03:02:50.654Z,93722
2018-03-18T03:03:22.690Z,93721
2018-03-18T03:03:55.481Z,93723
2018-03-18T03:04:27.502Z,93722
2018-03-18T03:05:00.301Z,93726
2018-03-18T03:05:32.324Z,93724
2018-03-18T03:06:04.385Z,93722
2018-03-18T03:06:37.166Z,93725
2018-03-18T03:07:09.204Z,93725
2018-03-18T03:07:41.992Z,93724
2018-03-18T03:08:14.019Z,93726
2018-03-18T03:08:46.803Z,93725
2018-03-18T03:09:19.583Z,93725
2018-03-18T03:09:51.608Z,93728
2018-03-18T03:10:24.396Z,93723
2018-03-18T03:10:56.424Z,93730
2018-03-18T03:11:29.208Z,93726
2018-03-18T03:12:01.237Z,93729
2018-03-18T03:12:34.032Z,93727
2018-03-18T03:13:06.074Z,93732
2018-03-18T03:13:38.861Z,93728
2018-03-18T03:14:10.893Z,93726
2018-03-18T03:14:43.676Z,93728
2018-03-18T03:15:15.698Z,93727
2018-03-18T03:15:48.500Z,93727
2018-03-18T03:16:20.539Z,93730
2018-03-18T03:16:52.584Z,93728
2018-03-18T03:17:24.609Z,93731
2018-03-18T03:17:56.644Z,93729
2018-03-18T03:18:28.650Z,93732
2018-03-18T03:19:00.713Z,93732
2018-03-18T03:19:32.762Z,93736
2018-03-18T03:20:04.774Z,93730
2018-03-18T03:20:37.574Z,93736
2018-03-18T03:21:09.599Z,93731
2018-03-18T03:21:42.397Z,93736
2018-03-18T03:22:14.427Z,93736
2018-03-18T03:22:47.221Z,93734
2018-03-18T03:23:19.250Z,93734
2018-03-18T03:23:52.048Z,93733
2018-03-18T03:24:24.069Z,93737
2018-03-18T03:24:56.854Z,93737
2018-03-18T03:25:28.891Z,93735
2018-03-18T03:26:01.664Z,93736
2018-03-18T03:26:33.689Z,93739
2018-03-18T03:27:06.491Z,93738
2018-03-18T03:27:38.508Z,93740
2018-03-18T03:28:11.313Z,93736
2018-03-18T03:28:43.349Z,93738
2018-03-18T03:29:16.141Z,93738
2018-03-18T03:29:48.923Z,93740
2018-03-18T03:30:20.972Z,93741
2018-03-18T03:30:53.022Z,93743
2018-03-18T03:31:25.069Z,93740
2018-03-18T03:31:57.113Z,93743
2018-03-18T03:32:29.133Z,93737
2018-03-18T03:33:01.930Z,93743
2018-03-18T03:33:33.963Z,93739
2018-03-18T03:34:06.778Z,93747
2018-03-18T03:34:38.777Z,93740
2018-03-18T03:35:11.590Z,93745
2018-03-18T03:35:43.601Z,93743
2018-03-18T03:36:16.424Z,93744
2018-03-18T03:36:48.449Z,93741
2018-03-18T03:37:21.246Z,93750
2018-03-18T03:37:53.296Z,93750
2018-03-18T03:38:25.327Z,93746
2018-03-18T03:38:58.176Z,93740
2018-03-18T03:39:30.200Z,93743
2018-03-18T03:40:02.256Z,93744
2018-03-18T03:40:34.270Z,93746
2018-03-18T03:41:06.317Z,93748
2018-03-18T03:41:38.335Z,93744
2018-03-18T03:42:10.381Z,93748
2018-03-18T03:42:42.409Z,93747
2018-03-18T03:43:14.422Z,93744
2018-03-18T03:43:46.473Z,93744
2018-03-18T03:44:18.512Z,93744
2018-03-18T03:44:50.525Z,93743
2018-03-18T03:45:22.551Z,93749
2018-03-18T03:45:54.570Z,93745
2018-03-18T03:46:26.608Z,93748
2018-03-18T03:46:58.628Z,93745
2018-03-18T03:47:30.667Z,93744
2018-03-18T03:48:02.709Z,93749
2018-03-18T03:48:34.726Z,93747
2018-03-18T03:49:07.527Z,93744
2018-03-18T03:49:39.557Z,93748
2018-03-18T03:50:11.574Z,93750
2018-03-18T03:50:43.595Z,93751
2018-03-18T03:51:15.615Z,93749
2018-03-18T03:51:47.644Z,93749
2018-03-18T03:52:20.435Z,93751
2018-03-18T03:52:52.512Z,93750
2018-03-18T03:53:24.497Z,93747
2018-03-18T03:53:56.520Z,93749
2018-03-18T03:54:28.544Z,93754
2018-03-18T03:55:00.560Z,93750
2018-03-18T03:55:33.366Z,93749
2018-03-18T03:56:05.405Z,93755
2018-03-18T03:56:37.441Z,93754
2018-03-18T03:57:10.233Z,93751
2018-03-18T03:57:42.246Z,93756
2018-03-18T03:58:14.263Z,93756
2018-03-18T03:58:46.274Z,93753
2018-03-18T03:59:18.312Z,93751
2018-03-18T03:59:51.094Z,93754
2018-03-18T04:00:23.132Z,93760
2018-03-18T04:00:55.145Z,93755
2018-03-18T04:01:27.172Z,93757
2018-03-18T04:01:59.202Z,93761
2018-03-18T04:02:31.220Z,93760
2018-03-18T04:03:03.245Z,93753
2018-03-18T04:03:35.274Z,93759
2018-03-18T04:04:07.345Z,93758
2018-03-18T04:04:39.355Z,93756
2018-03-18T04:05:11.477Z,93758
2018-03-18T04:05:43.496Z,93762
2018-03-18T04:06:15.520Z,93760
2018-03-18T04:06:47.541Z,93759
2018-03-18T04:07:20.329Z,93758
2018-03-18T04:07:52.423Z,93756
2018-03-18T04:08:25.173Z,93761
2018-03-18T04:08:57.186Z,93763
2018-03-18T04:09:29.992Z,93761
2018-03-18T04:10:02.006Z,93762
2018-03-18T04:10:34.801Z,93765
2018-03-18T04:11:06.826Z,93762
2018-03-18T04:11:39.611Z,93761
2018-03-18T04:12:11.632Z,93761
2018-03-18T04:12:43.656Z,93762
2018-03-18T04:13:15.697Z,93762
2018-03-18T04:13:47.754Z,93764
2018-03-18T04:14:19.781Z,93760
2018-03-18T04:14:51.809Z,93763
2018-03-18T04:15:24.590Z,93763
2018-03-18T04:15:56.623Z,93762
2018-03-18T04:16:29.410Z,93759
2018-03-18T04:17:01.464Z,93760
2018-03-18T04:17:33.527Z,93760
2018-03-18T04:18:06.283Z,93760
2018-03-18T04:18:38.320Z,93764
2018-03-18T04:19:11.108Z,93760
2018-03-18T04:19:43.139Z,93765
2018-03-18T04:20:15.928Z,93764
2018-03-18T04:20:47.961Z,93761
2018-03-18T04:21:20.740Z,93770
2018-03-18T04:21:52.764Z,93767
2018-03-18T04:22:25.549Z,93764
2018-03-18T04:22:57.605Z,93767
2018-03-18T04:23:29.627Z,93764
2018-03-18T04:24:01.653Z,93767
2018-03-18T04:24:33.694Z,93758
2018-03-18T04:25:05.753Z,93763
2018-03-18T04:25:37.766Z,93762
2018-03-18T04:26:09.797Z,93764
2018-03-18T04:26:42.590Z,93763
2018-03-18T04:27:14.616Z,93759
2018-03-18T04:27:47.430Z,93760
2018-03-18T04:28:19.432Z,93768
2018-03-18T04:28:52.229Z,93768
2018-03-18T04:29:24.266Z,93772
2018-03-18T04:29:57.052Z,93767
2018-03-18T04:30:29.083Z,93772
2018-03-18T04:31:01.893Z,93769
2018-03-18T04:31:33.908Z,93770
2018-03-18T04:32:06.715Z,93765
2018-03-18T04:32:38.749Z,93768
2018-03-18T04:33:10.773Z,93769
2018-03-18T04:33:43.571Z,93766
2018-03-18T04:34:15.584Z,93768
2018-03-18T04:34:48.376Z,93771
2018-03-18T04:35:20.417Z,93773
2018-03-18T04:35:52.464Z,93767
2018-03-18T04:36:25.253Z,93768
2018-03-18T04:36:57.300Z,93773
2018-03-18T04:37:30.080Z,93767
2018-03-18T04:38:02.101Z,93770
2018-03-18T04:38:34.900Z,93771
2018-03-18T04:39:06.927Z,93771
2018-03-18T04:39:39.707Z,93770
2018-03-18T04:40:12.539Z,93770
2018-03-18T04:40:44.549Z,93769
2018-03-18T04:41:16.578Z,93770
2018-03-18T04:41:48.613Z,93769
2018-03-18T04:42:21.414Z,93774
2018-03-18T04:42:53.425Z,93772
2018-03-18T04:43:26.220Z,93774
2018-03-18T04:43:58.246Z,93772
2018-03-18T04:44:30.271Z,93771
2018-03-18T04:45:02.302Z,93772
2018-03-18T04:45:34.312Z,93774
2018-03-18T04:46:07.110Z,93773
2018-03-18T04:46:39.116Z,93774
2018-03-18T04:47:11.907Z,93773
2018-03-18T04:47:43.940Z,93771
2018-03-18T04:48:16.738Z,93770
2018-03-18T04:48:48.767Z,93771
2018-03-18T04:49:21.548Z,93771
2018-03-18T04:49:53.703Z,93773
2018-03-18T04:50:25.736Z,93766
2018-03-18T04:50:58.566Z,93774
2018-03-18T04:51:30.588Z,93771
2018-03-18T04:52:02.627Z,93769
2018-03-18T04:52:34.660Z,93766
2018-03-18T04:53:07.480Z,93774
2018-03-18T04:53:39.500Z,93773
2018-03-18T04:54:11.526Z,93771
2018-03-18T04:54:44.327Z,93773
2018-03-18T04:55:16.351Z,93774
2018-03-18T04:55:49.149Z,93773
2018-03-18T04:56:21.203Z,93775
2018-03-18T04:56:53.254Z,93773
2018-03-18T04:57:25.281Z,93771
2018-03-18T04:57:58.123Z,93772
2018-03-18T04:58:30.144Z,93777
2018-03-18T04:59:02.171Z,93775
2018-03-18T04:59:34.200Z,93774
2018-03-18T05:00:06.985Z,93777
2018-03-18T05:00:39.018Z,93773
2018-03-18T05:01:11.815Z,93773
2018-03-18T05:01:43.843Z,93775
2018-03-18T05:02:16.632Z,93781
2018-03-18T05:02:48.666Z,93777
2018-03-18T05:03:21.448Z,93782
2018-03-18T05:03:53.472Z,93777
2018-03-18T05:04:26.260Z,93775
2018-03-18T05:04:58.294Z,93774
2018-03-18T05:05:31.091Z,93776
2018-03-18T05:06:03.132Z,93779
2018-03-18T05:06:35.253Z,93779
2018-03-18T05:07:07.271Z,93784
2018-03-18T05:07:39.307Z,93781
2018-03-18T05:08:11.325Z,93780
2018-03-18T05:08:44.100Z,93781
2018-03-18T05:09:16.129Z,93782
2018-03-18T05:09:48.150Z,93781
2018-03-18T05:10:20.193Z,93781
2018-03-18T05:10:52.199Z,93779
2018-03-18T05:11:24.982Z,93782
2018-03-18T05:11:57.005Z,93781
2018-03-18T05:12:29.032Z,93785
2018-03-18T05:13:01.068Z,93783
2018-03-18T05:13:33.102Z,93784
2018-03-18T05:14:05.121Z,93782
2018-03-18T05:14:37.957Z,93784
2018-03-18T05:15:09.994Z,93784
2018-03-18T05:15:42.020Z,93782
2018-03-18T05:16:14.047Z,93783
2018-03-18T05:16:46.844Z,93781
2018-03-18T05:17:18.861Z,93784
2018-03-18T05:17:51.695Z,93784
2018-03-18T05:18:23.711Z,93790
2018-03-18T05:18:55.739Z,93784
2018-03-18T05:19:28.524Z,93784
2018-03-18T05:20:00.572Z,93786
2018-03-18T05:20:33.352Z,93788
2018-03-18T05:21:05.368Z,93787
2018-03-18T05:21:38.196Z,93787
2018-03-18T05:22:10.201Z,93787
2018-03-18T05:22:43.009Z,93789
2018-03-18T05:23:15.042Z,93793
2018-03-18T05:23:47.827Z,93796
2018-03-18T05:24:19.840Z,93796
2018-03-18T05:24:52.640Z,93796
2018-03-18T05:25:24.655Z,93799
2018-03-18T05:25:57.446Z,93798
2018-03-18T05:26:29.469Z,93792
2018-03-18T05:27:02.276Z,93800
2018-03-18T05:27:34.281Z,93800
2018-03-18T05:28:06.312Z,93802
2018-03-18T05:28:38.350Z,93801
2018-03-18T05:29:10.378Z,93798
2018-03-18T05:29:42.400Z,93805
2018-03-18T05:30:15.184Z,93802
2018-03-18T05:30:47.214Z,93806
2018-03-18T05:31:20.008Z,93805
2018-03-18T05:31:52.149Z,93806
2018-03-18T05:32:24.923Z,93805
2018-03-18T05:32:56.953Z,93807
2018-03-18T05:33:29.788Z,93805
2018-03-18T05:34:01.804Z,93804
2018-03-18T05:34:33.825Z,93804
2018-03-18T05:35:06.671Z,93808
2018-03-18T05:35:38.733Z,93805
2018-03-18T05:36:10.756Z,93813
2018-03-18T05:36:42.797Z,93812
2018-03-18T05:37:14.809Z,93811
2018-03-18T05:37:47.608Z,93810
2018-03-18T05:38:19.633Z,93813
2018-03-18T05:38:52.414Z,93807
2018-03-18T05:39:24.448Z,93818
2018-03-18T05:39:57.232Z,93813
2018-03-18T05:40:29.252Z,93821
2018-03-18T05:41:01.279Z,93821
2018-03-18T05:41:33.328Z,93818
2018-03-18T05:42:05.398Z,93810
2018-03-18T05:42:37.382Z,93821
2018-03-18T05:43:09.407Z,93821
2018-03-18T05:43:41.453Z,93822
2018-03-18T05:44:13.498Z,93821
2018-03-18T05:44:45.599Z,93816
2018-03-18T05:45:18.421Z,93825
2018-03-18T05:45:50.482Z,93825
2018-03-18T05:46:22.505Z,93821
2018-03-18T05:46:54.516Z,93814
2018-03-18T05:47:26.538Z,93821
2018-03-18T05:47:59.329Z,93818
2018-03-18T05:48:32.113Z,93813
2018-03-18T05:49:04.133Z,93821
2018-03-18T05:49:36.930Z,93823
2018-03-18T05:50:08.957Z,93821
2018-03-18T05:50:41.766Z,93824
2018-03-18T05:51:13.785Z,93821
2018-03-18T05:51:46.565Z,93826
2018-03-18T05:52:18.636Z,93827
2018-03-18T05:52:50.663Z,93831
2018-03-18T05:53:22.708Z,93833
2018-03-18T05:53:55.485Z,93829
2018-03-18T05:54:27.529Z,93831
2018-03-18T05:54:59.558Z,93830
2018-03-18T05:55:31.583Z,93836
2018-03-18T05:56:03.622Z,93831
2018-03-18T05:56:35.633Z,93835
2018-03-18T05:57:08.432Z,93842
2018-03-18T05:57:40.483Z,93841
2018-03-18T05:58:12.531Z,93844
2018-03-18T05:58:44.536Z,93843
2018-03-18T05:59:16.556Z,93849
2018-03-18T05:59:48.602Z,93842
2018-03-18T06:00:20.600Z,93844
2018-03-18T06:00:53.405Z,93844
2018-03-18T06:01:25.460Z,93849
2018-03-18T06:01:57.660Z,93848
2018-03-18T06:02:29.710Z,93849
2018-03-18T06:03:01.748Z,93847
2018-03-18T06:03:33.777Z,93853
2018-03-18T06:04:05.802Z,93855
2018-03-18T06:04:37.821Z,93854
2018-03-18T06:05:09.853Z,93852
2018-03-18T06:05:41.880Z,93861
2018-03-18T06:06:13.901Z,93863
2018-03-18T06:06:45.929Z,93859
2018-03-18T06:07:18.712Z,93863
2018-03-18T06:07:51.549Z,93860
2018-03-18T06:08:23.596Z,93856
2018-03-18T06:08:55.631Z,93863
2018-03-18T06:09:27.640Z,93862
2018-03-18T06:10:00.439Z,93860
2018-03-18T06:10:32.470Z,93862
2018-03-18T06:11:04.499Z,93867
2018-03-18T06:11:37.314Z,93869
2018-03-18T06:12:09.340Z,93865
2018-03-18T06:12:41.377Z,93869
2018-03-18T06:13:14.185Z,93867
2018-03-18T06:13:46.212Z,93870
2018-03-18T06:14:18.246Z,93866
2018-03-18T06:14:51.018Z,93872
2018-03-18T06:15:23.813Z,93870
2018-03-18T06:15:55.864Z,93873
2018-03-18T06:16:27.880Z,93874
2018-03-18T06:17:00.674Z,93872
2018-03-18T06:17:32.710Z,93868
2018-03-18T06:18:05.497Z,93874
2018-03-18T06:18:37.530Z,93873
2018-03-18T06:19:10.328Z,93873
2018-03-18T06:19:42.348Z,93874
2018-03-18T06:20:15.186Z,93877
2018-03-18T06:20:47.225Z,93877
2018-03-18T06:21:19.259Z,93875
2018-03-18T06:21:51.265Z,93877
2018-03-18T06:22:24.058Z,93872
2018-03-18T06:22:56.095Z,93878
2018-03-18T06:23:28.884Z,93879
2018-03-18T06:24:00.912Z,93880
2018-03-18T06:24:33.692Z,93872
2018-03-18T06:25:05.749Z,93875
2018-03-18T06:25:37.771Z,93881
2018-03-18T06:26:09.797Z,93880
2018-03-18T06:26:41.828Z,93876
2018-03-18T06:27:13.849Z,93875
2018-03-18T06:27:45.878Z,93879
2018-03-18T06:28:18.688Z,93878
2018-03-18T06:28:50.714Z,93880
2018-03-18T06:29:22.744Z,93882
2018-03-18T06:29:54.769Z,93881
2018-03-18T06:30:26.802Z,93887
2018-03-18T06:30:58.824Z,93881
2018-03-18T06:31:30.874Z,93881
2018-03-18T06:32:03.649Z,93885
2018-03-18T06:32:35.685Z,93886
2018-03-18T06:33:08.500Z,93882
2018-03-18T06:33:40.540Z,93883
2018-03-18T06:34:12.557Z,93887
2018-03-18T06:34:45.340Z,93886
2018-03-18T06:35:17.369Z,93889
2018-03-18T06:35:50.152Z,93889
2018-03-18T06:36:22.179Z,93893
2018-03-18T06:36:54.973Z,93883
2018-03-18T06:37:27.002Z,93893
2018-03-18T06:37:59.021Z,93887
2018-03-18T06:38:31.031Z,93891
2018-03-18T06:39:03.057Z,93889
2018-03-18T06:39:35.855Z,93889
2018-03-18T06:40:07.874Z,93888
2018-03-18T06:40:39.889Z,93887
2018-03-18T06:41:11.916Z,93891
2018-03-18T06:41:43.949Z,93893
2018-03-18T06:42:16.007Z,93893
2018-03-18T06:42:48.022Z,93897
2018-03-18T06:43:20.041Z,93896
2018-03-18T06:43:52.104Z,93897
2018-03-18T06:44:24.157Z,93898
2018-03-18T06:44:56.182Z,93897
2018-03-18T06:45:28.227Z,93895
2018-03-18T06:46:00.237Z,93900
2018-03-18T06:46:33.028Z,93896
2018-03-18T06:47:05.061Z,93898
2018-03-18T06:47:37.868Z,93902
2018-03-18T06:48:09.912Z,93902
2018-03-18T06:48:41.967Z,93902
2018-03-18T06:49:13.996Z,93908
2018-03-18T06:49:46.034Z,93899
2018-03-18T06:50:18.051Z,93904
2018-03-18T06:50:50.075Z,93907
2018-03-18T06:51:22.098Z,93910
2018-03-18T06:51:54.895Z,93913
2018-03-18T06:52:26.926Z,93910
2018-03-18T06:52:59.722Z,93913
2018-03-18T06:53:31.729Z,93915
2018-03-18T06:54:04.514Z,93913
2018-03-18T06:54:36.546Z,93918
2018-03-18T06:55:09.350Z,93919